Impacts TAF Board INFO
FOR SITUATIONAL AWARENESS. NOT TO BE USED FOR FLIGHT PLANNING PURPOSES.
IDs:

KIAH - Houston/Bush Intl, TX, US

Issued at 0303 UTC 17 Dec 2017
Updated at 0358 UTC 17 Dec 2017
Potential Impact None Slight Moderate High
Time0353Z 17/04Z 17/05Z 17/06Z 17/07Z 17/08Z 17/09Z 17/10Z 17/11Z 17/12Z 17/13Z 17/14Z 17/15Z 17/16Z>>
Type OBS PRVL PRVL PRVL PRVL PRVL PRVL PRVL PRVL PRVL PRVL PRVL PRVL PRVL
VIS 1.5 4 4 4 2 2 2 2 2 2 2 2 2 2
CIG 7 12 12 12 7 7 7 7 7 7 7 7 7 7
Cover OVC OVC OVC OVC OVC OVC OVC OVC OVC BKN BKN BKN BKN BKN
FltCat IFR MVFR MVFR MVFR IFR IFR IFR IFR IFR IFR IFR IFR IFR IFR
WX +RA BR RA -RA BR -RA BR BR BR BR BR BR BR BR BR BR BR
WDir 280 110 50 50 340 340 340 340 340 10 10 10 10 10
WSpd 24 12 10 10 8 8 8 8 8 3 3 3 3 3
WGst 33 -- -- -- -- -- -- -- -- -- -- -- -- --

Raw TAF
KIAH 170303Z 1703/1806 11012KT 4SM RA SCT007 OVC012
  FM170500 05010KT 4SM -RA BR OVC012
  FM170700 34008KT 2SM BR OVC007
  FM171200 01003KT 2SM BR BKN007 BKN250
  FM171800 12005KT P6SM FEW015 BKN250


Raw METAR
KIAH 170353Z 28024G33KT 1 1/2SM +RA BR BKN007 OVC011 12/12 A3000 RMK AO2 PK WND 28033/0353 PRESRR SLP158 P0029 T01170117
KIAH 170342Z 30006KT 2SM RA BR FEW007 OVC010 12/12 A2996 RMK AO2 LTG DSNT S P0013 T01220117
KIAH 170253Z 11012KT 5SM RA BR OVC013 11/09 A2994 RMK AO2 SLP140 P0006 60007 T01110094 58026
KIAH 170224Z 11016KT 10SM -RA OVC014 12/08 A2995 RMK AO2 LTG DSNT S P0001 T01170078
KIAH 170153Z 11013G20KT 10SM -RA OVC016 12/07 A2997 RMK AO2 RAB15 SLP148 P0001 T01170067
KIAH 170053Z 10015KT 10SM OVC018 13/03 A3000 RMK AO2 RAE07 SLP159 P0000 T01330033

METAR Board
Radar Display
Forecast Discussion

FOR SITUATIONAL AWARENESS. NOT TO BE USED FOR FLIGHT PLANNING PURPOSES.